createdAt,value
2022-12-26T00:01:39.704Z,3.33
2022-12-26T00:04:07.128Z,4.05
2022-12-26T00:06:53.241Z,3.63
2022-12-26T00:09:19.629Z,3.90
2022-12-26T00:11:46.066Z,3.88
2022-12-26T00:14:14.407Z,3.75
2022-12-26T00:16:42.366Z,3.58
2022-12-26T00:19:08.973Z,3.15
2022-12-26T00:21:35.583Z,3.72
2022-12-26T00:24:02.250Z,3.55
2022-12-26T00:26:30.609Z,3.15
2022-12-26T00:28:57.365Z,3.45
2022-12-26T00:31:26.123Z,3.30
2022-12-26T00:33:52.710Z,3.45
2022-12-26T00:36:25.067Z,3.10
2022-12-26T00:38:51.658Z,3.70
2022-12-26T00:41:19.009Z,3.40
2022-12-26T00:43:45.436Z,3.50
2022-12-26T00:46:11.811Z,3.10
2022-12-26T00:48:38.264Z,3.17
2022-12-26T00:51:05.090Z,3.33
2022-12-26T00:53:31.721Z,3.17
2022-12-26T00:55:58.189Z,3.42
2022-12-26T00:58:24.758Z,2.05
2022-12-26T01:00:51.227Z,3.40
2022-12-26T01:03:18.094Z,2.88
2022-12-26T01:05:47.103Z,2.88
2022-12-26T01:08:23.073Z,3.05
2022-12-26T01:10:51.082Z,2.80
2022-12-26T01:13:17.435Z,2.42
2022-12-26T01:15:49.212Z,2.85
2022-12-26T01:18:15.818Z,2.60
2022-12-26T01:20:42.269Z,2.60
2022-12-26T01:23:08.597Z,3.15
2022-12-26T01:25:34.983Z,3.00
2022-12-26T01:28:01.393Z,3.20
2022-12-26T01:30:27.854Z,2.83
2022-12-26T01:32:54.285Z,2.83
2022-12-26T01:35:20.668Z,2.78
2022-12-26T01:37:47.017Z,2.80
2022-12-26T01:40:13.462Z,2.30
2022-12-26T01:42:41.300Z,2.58
2022-12-26T01:45:26.401Z,2.65
2022-12-26T01:48:14.068Z,2.60
2022-12-26T01:50:45.072Z,2.70
2022-12-26T01:53:32.607Z,2.78
2022-12-26T01:56:05.343Z,2.10
2022-12-26T01:58:34.004Z,3.28
2022-12-26T02:01:02.676Z,2.70
2022-12-26T02:03:47.749Z,2.90
2022-12-26T02:06:14.968Z,3.30
2022-12-26T02:08:41.844Z,2.63
2022-12-26T02:11:11.976Z,2.50
2022-12-26T02:13:39.106Z,2.90
2022-12-26T02:16:07.481Z,3.35
2022-12-26T02:18:33.955Z,3.10
2022-12-26T02:21:15.161Z,2.60
2022-12-26T02:24:19.123Z,2.88
2022-12-26T02:27:11.186Z,2.90
2022-12-26T02:29:57.913Z,2.00
2022-12-26T02:32:42.540Z,2.63
2022-12-26T02:35:22.373Z,2.50
2022-12-26T02:38:08.276Z,2.22
2022-12-26T02:40:46.323Z,2.72
2022-12-26T02:43:41.754Z,2.83
2022-12-26T02:46:40.032Z,2.92
2022-12-26T02:49:31.876Z,3.00
2022-12-26T02:52:23.954Z,2.63
2022-12-26T02:55:31.409Z,2.65
2022-12-26T02:58:36.976Z,2.40
2022-12-26T03:01:25.226Z,2.97
2022-12-26T03:04:13.219Z,2.67
2022-12-26T03:07:00.267Z,2.60
2022-12-26T03:09:48.408Z,2.92
2022-12-26T03:12:36.684Z,3.03
2022-12-26T03:15:05.941Z,3.42
2022-12-26T03:17:48.820Z,3.22
2022-12-26T03:20:24.573Z,3.47
2022-12-26T03:23:00.214Z,3.05
2022-12-26T03:25:54.372Z,2.80
2022-12-26T03:28:22.039Z,3.05
2022-12-26T03:30:52.167Z,2.58
2022-12-26T03:33:48.071Z,2.55
2022-12-26T03:36:48.683Z,2.85
2022-12-26T03:39:59.188Z,2.78
2022-12-26T03:42:57.171Z,2.65
2022-12-26T03:45:45.885Z,2.83
2022-12-26T03:48:49.519Z,2.75
2022-12-26T03:51:47.027Z,2.90
2022-12-26T03:54:35.660Z,2.83
2022-12-26T03:57:24.741Z,2.97
2022-12-26T04:00:12.597Z,3.55
2022-12-26T04:02:58.658Z,3.30
2022-12-26T04:05:43.737Z,3.13
2022-12-26T04:08:45.560Z,3.65
2022-12-26T04:11:35.088Z,2.97
2022-12-26T04:15:20.183Z,2.65
2022-12-26T04:18:16.831Z,2.65
2022-12-26T04:21:06.395Z,3.00
2022-12-26T04:24:03.219Z,2.40
2022-12-26T04:26:56.367Z,2.50
2022-12-26T04:29:41.700Z,2.45
2022-12-26T04:32:32.845Z,2.47
2022-12-26T04:35:31.336Z,3.15
2022-12-26T04:38:17.385Z,3.05
2022-12-26T04:41:05.725Z,2.67
2022-12-26T04:43:52.103Z,2.97
2022-12-26T04:46:20.957Z,2.83
2022-12-26T04:49:07.445Z,2.67
2022-12-26T04:51:34.355Z,2.53
2022-12-26T04:54:00.784Z,2.35
2022-12-26T04:56:27.202Z,2.85
2022-12-26T04:58:53.543Z,3.42
2022-12-26T05:01:38.345Z,2.67
2022-12-26T05:04:43.232Z,2.72
2022-12-26T05:07:38.493Z,2.80
2022-12-26T05:10:06.345Z,3.20
2022-12-26T05:14:59.070Z,2.78
2022-12-26T05:17:44.167Z,2.95
2022-12-26T05:20:30.517Z,2.58
2022-12-26T05:23:16.367Z,2.67
2022-12-26T05:26:02.392Z,3.03
2022-12-26T05:28:43.910Z,2.58
2022-12-26T05:31:16.162Z,2.60
2022-12-26T05:34:02.022Z,2.22
2022-12-26T05:36:31.900Z,2.20
2022-12-26T05:38:58.319Z,2.55
2022-12-26T05:41:24.760Z,2.85
2022-12-26T05:43:51.181Z,2.95
2022-12-26T05:46:17.612Z,2.80
2022-12-26T05:48:44.007Z,2.38
2022-12-26T05:51:10.627Z,2.75
2022-12-26T05:53:37.064Z,2.63
2022-12-26T05:56:08.419Z,2.58
2022-12-26T05:58:34.750Z,2.40
2022-12-26T06:01:20.253Z,2.67
2022-12-26T06:03:49.094Z,2.40
2022-12-26T06:06:16.516Z,2.40
2022-12-26T06:08:43.211Z,2.42
2022-12-26T06:11:14.357Z,2.70
2022-12-26T06:13:40.877Z,2.50
2022-12-26T06:16:09.404Z,2.60
2022-12-26T06:18:36.129Z,2.30
2022-12-26T06:21:13.866Z,2.30
2022-12-26T06:23:40.535Z,2.63
2022-12-26T06:26:08.917Z,2.40
2022-12-26T06:28:35.978Z,2.03
2022-12-26T06:31:07.489Z,2.10
2022-12-26T06:33:33.969Z,1.95
2022-12-26T06:36:05.018Z,1.58
2022-12-26T06:38:31.390Z,2.47
2022-12-26T06:40:57.779Z,2.50
2022-12-26T06:43:24.091Z,2.65
2022-12-26T06:45:59.806Z,2.28
2022-12-26T06:48:26.582Z,2.60
2022-12-26T06:50:54.345Z,2.60
2022-12-26T06:53:21.986Z,2.92
2022-12-26T06:55:48.646Z,2.92
2022-12-26T06:58:15.265Z,2.47
2022-12-26T07:00:41.702Z,2.83
2022-12-26T07:03:08.183Z,2.67
2022-12-26T07:05:38.808Z,2.58
2022-12-26T07:08:05.276Z,2.92
2022-12-26T07:10:35.234Z,2.50
2022-12-26T07:13:01.557Z,2.78
2022-12-26T07:15:27.888Z,2.85
2022-12-26T07:17:54.233Z,2.70
2022-12-26T07:20:20.807Z,2.60
2022-12-26T07:22:47.183Z,2.78
2022-12-26T07:25:13.533Z,2.70
2022-12-26T07:27:39.910Z,2.50
2022-12-26T07:30:06.917Z,2.55
2022-12-26T07:32:33.281Z,2.38
2022-12-26T07:34:59.639Z,2.47
2022-12-26T07:37:26.010Z,3.30
2022-12-26T07:39:58.584Z,3.03
2022-12-26T07:42:25.374Z,3.40
2022-12-26T07:44:51.755Z,3.00
2022-12-26T07:47:18.208Z,2.70
2022-12-26T07:49:44.535Z,2.45
2022-12-26T07:52:10.899Z,3.25
2022-12-26T07:54:37.243Z,3.25
2022-12-26T07:57:30.276Z,2.90
2022-12-26T07:59:53.272Z,2.88
2022-12-26T08:02:20.309Z,2.90
2022-12-26T08:04:46.893Z,2.92
2022-12-26T08:07:13.404Z,2.85
2022-12-26T08:09:42.689Z,3.47
2022-12-26T08:12:09.303Z,3.85
2022-12-26T08:14:37.243Z,3.97
2022-12-26T08:17:03.765Z,4.32
2022-12-26T08:19:30.271Z,3.97
2022-12-26T08:21:56.653Z,3.03
2022-12-26T08:24:23.080Z,2.75
2022-12-26T08:26:49.485Z,3.20
2022-12-26T08:29:15.809Z,3.10
2022-12-26T08:31:42.279Z,3.17
2022-12-26T08:34:08.672Z,3.13
2022-12-26T08:36:35.009Z,2.88
2022-12-26T08:39:01.357Z,3.13
2022-12-26T08:41:27.685Z,2.63
2022-12-26T08:46:40.364Z,3.17
2022-12-26T08:49:06.733Z,3.67
2022-12-26T08:51:33.134Z,3.40
2022-12-26T08:53:59.526Z,3.25
2022-12-26T08:56:26.537Z,3.10
2022-12-26T08:58:53.422Z,3.55
2022-12-26T09:01:22.122Z,3.30
2022-12-26T09:03:52.645Z,3.78
2022-12-26T09:06:19.043Z,3.30
2022-12-26T09:08:45.428Z,3.67
2022-12-26T09:11:14.160Z,3.75
2022-12-26T09:13:41.842Z,3.20
2022-12-26T09:16:13.942Z,3.70
2022-12-26T09:18:40.990Z,3.42
2022-12-26T09:21:09.038Z,3.20
2022-12-26T09:23:36.006Z,3.15
2022-12-26T09:26:14.305Z,4.13
2022-12-26T09:28:41.417Z,3.50
2022-12-26T09:31:11.870Z,3.47
2022-12-26T09:33:38.674Z,3.38
2022-12-26T09:36:25.645Z,2.65
2022-12-26T09:41:37.397Z,2.80
2022-12-26T09:44:15.615Z,2.72
2022-12-26T09:47:00.230Z,3.40
2022-12-26T09:49:33.104Z,2.58
2022-12-26T09:52:02.299Z,2.35
2022-12-26T09:54:39.338Z,3.58
2022-12-26T09:57:31.633Z,2.67
2022-12-26T10:00:05.015Z,3.03
2022-12-26T10:02:31.682Z,3.00
2022-12-26T10:04:58.601Z,2.53
2022-12-26T10:07:37.944Z,3.25
2022-12-26T10:10:13.452Z,3.28
2022-12-26T10:12:49.017Z,3.35
2022-12-26T10:15:35.112Z,2.45
2022-12-26T10:18:20.178Z,2.13
2022-12-26T10:20:58.297Z,2.97
2022-12-26T10:23:45.343Z,2.80
2022-12-26T10:29:00.140Z,3.30
2022-12-26T10:31:42.487Z,2.92
2022-12-26T10:34:19.433Z,3.10
2022-12-26T10:36:51.679Z,1.90
2022-12-26T10:39:23.195Z,2.60
2022-12-26T10:41:53.513Z,2.38
2022-12-26T10:44:25.611Z,1.85
2022-12-26T10:46:59.540Z,1.70
2022-12-26T10:49:26.715Z,2.05
2022-12-26T10:51:55.521Z,1.90
2022-12-26T10:54:22.273Z,2.13
2022-12-26T10:56:51.042Z,2.10
2022-12-26T10:59:35.411Z,1.90
2022-12-26T11:02:13.659Z,1.75
2022-12-26T11:05:13.611Z,2.10
2022-12-26T11:07:52.077Z,1.50
2022-12-26T11:10:22.072Z,2.30
2022-12-26T11:12:51.853Z,2.00
2022-12-26T11:15:41.443Z,6.80
2022-12-26T11:18:27.469Z,3.47
2022-12-26T11:20:53.831Z,4.47
2022-12-26T11:23:28.029Z,3.42
2022-12-26T11:28:34.185Z,2.78
2022-12-26T11:31:03.354Z,2.60
2022-12-26T11:33:32.918Z,2.20
2022-12-26T11:36:11.261Z,2.20
2022-12-26T11:38:52.644Z,1.92
2022-12-26T11:41:43.973Z,1.85
2022-12-26T11:44:10.249Z,1.70
2022-12-26T11:46:57.963Z,1.38
2022-12-26T11:49:29.862Z,1.88
2022-12-26T11:51:59.814Z,1.83
2022-12-26T11:54:29.805Z,1.73
2022-12-26T11:57:22.288Z,1.42
2022-12-26T11:59:49.786Z,1.58
2022-12-26T12:02:26.698Z,1.77
2022-12-26T12:04:55.879Z,1.92
2022-12-26T12:07:29.894Z,1.55
2022-12-26T12:10:20.725Z,2.55
2022-12-26T12:12:52.904Z,1.70
2022-12-26T12:15:29.835Z,2.50
2022-12-26T12:18:11.429Z,1.80
2022-12-26T12:21:05.623Z,1.73
2022-12-26T12:23:53.971Z,1.67
2022-12-26T12:26:32.465Z,1.88
2022-12-26T12:29:12.895Z,1.70
2022-12-26T12:31:56.476Z,1.58
2022-12-26T12:34:56.357Z,1.85
2022-12-26T12:40:44.893Z,1.52
2022-12-26T12:43:17.090Z,1.88
2022-12-26T12:45:59.026Z,1.75
2022-12-26T12:48:52.548Z,1.90
2022-12-26T12:51:47.600Z,1.52
2022-12-26T12:54:32.499Z,1.52
2022-12-26T12:57:01.430Z,1.67
2022-12-26T12:59:43.635Z,1.33
2022-12-26T13:02:20.746Z,1.30
2022-12-26T13:04:51.988Z,1.48
2022-12-26T13:07:22.761Z,1.60
2022-12-26T13:09:58.606Z,1.30
2022-12-26T13:12:34.777Z,1.13
2022-12-26T13:15:23.251Z,1.70
2022-12-26T13:17:56.469Z,1.50
2022-12-26T13:20:29.993Z,1.60
2022-12-26T13:23:19.913Z,1.70
2022-12-26T13:25:49.351Z,2.25
2022-12-26T13:28:19.081Z,1.80
2022-12-26T13:30:45.580Z,1.45
2022-12-26T13:33:14.526Z,1.30
2022-12-26T13:35:52.493Z,1.50
2022-12-26T13:38:20.273Z,1.30
2022-12-26T13:43:41.871Z,1.23
2022-12-26T13:46:42.100Z,1.70
2022-12-26T13:49:36.975Z,1.90
2022-12-26T13:52:12.403Z,1.80
2022-12-26T13:54:47.882Z,2.08
2022-12-26T13:57:32.964Z,2.78
2022-12-26T14:00:04.075Z,2.63
2022-12-26T14:03:17.503Z,1.77
2022-12-26T14:06:11.497Z,1.20
2022-12-26T14:08:54.584Z,1.10
2022-12-26T14:11:38.968Z,1.10
2022-12-26T14:14:40.782Z,1.35
2022-12-26T14:17:37.401Z,1.85
2022-12-26T14:20:15.457Z,1.17
2022-12-26T14:23:03.633Z,1.70
2022-12-26T14:25:36.612Z,1.70
2022-12-26T14:28:17.224Z,1.20
2022-12-26T14:33:40.650Z,1.08
2022-12-26T14:36:32.484Z,1.35
2022-12-26T14:39:23.021Z,1.65
2022-12-26T14:42:26.219Z,1.20
2022-12-26T14:44:57.327Z,1.38
2022-12-26T14:47:40.067Z,1.25
2022-12-26T14:50:42.481Z,1.48
2022-12-26T14:53:30.065Z,1.35
2022-12-26T14:56:33.164Z,1.10
2022-12-26T14:59:24.655Z,1.00
2022-12-26T15:02:01.565Z,1.20
2022-12-26T15:04:44.514Z,1.23
2022-12-26T15:07:43.128Z,1.10
2022-12-26T15:10:29.484Z,1.05
2022-12-26T15:13:14.601Z,1.50
2022-12-26T15:15:41.194Z,1.50
2022-12-26T15:18:26.080Z,1.42
2022-12-26T15:21:21.438Z,1.60
2022-12-26T15:24:06.905Z,1.17
2022-12-26T15:26:53.301Z,1.60
2022-12-26T15:29:35.677Z,1.35
2022-12-26T15:32:27.538Z,1.00
2022-12-26T15:35:15.372Z,1.02
2022-12-26T15:38:04.157Z,1.35
2022-12-26T15:40:35.479Z,1.02
2022-12-26T15:43:20.253Z,1.10
2022-12-26T15:46:15.819Z,1.00
2022-12-26T15:48:57.294Z,0.98
2022-12-26T15:51:29.732Z,1.17
2022-12-26T15:54:02.031Z,1.15
2022-12-26T15:56:50.178Z,1.00
2022-12-26T15:59:31.825Z,1.05
2022-12-26T16:01:58.669Z,1.20
2022-12-26T16:04:30.227Z,0.77
2022-12-26T16:07:25.578Z,1.15
2022-12-26T16:09:54.659Z,1.30
2022-12-26T16:12:34.223Z,0.95
2022-12-26T16:15:09.732Z,1.20
2022-12-26T16:17:40.314Z,1.23
2022-12-26T16:21:00.486Z,1.58
2022-12-26T16:23:29.083Z,1.08
2022-12-26T16:25:56.951Z,1.33
2022-12-26T16:30:52.662Z,1.35
2022-12-26T16:33:19.533Z,1.73
2022-12-26T16:35:46.189Z,1.58
2022-12-26T16:38:18.204Z,1.83
2022-12-26T16:40:49.361Z,0.70
2022-12-26T16:43:18.685Z,0.70
2022-12-26T16:45:46.957Z,1.40
2022-12-26T16:48:15.950Z,1.20
2022-12-26T16:50:48.555Z,0.98
2022-12-26T16:53:17.698Z,0.77
2022-12-26T16:56:13.337Z,1.05
2022-12-26T16:58:39.855Z,1.27
2022-12-26T17:01:07.587Z,1.55
2022-12-26T17:03:59.388Z,1.23
2022-12-26T17:06:32.241Z,1.45
2022-12-26T17:09:07.518Z,1.45
2022-12-26T17:11:36.282Z,1.20
2022-12-26T17:14:04.364Z,1.30
2022-12-26T17:16:31.818Z,1.77
2022-12-26T17:19:18.160Z,2.00
2022-12-26T17:22:23.264Z,1.75
2022-12-26T17:24:51.017Z,1.55
2022-12-26T17:27:23.344Z,1.70
2022-12-26T17:30:20.101Z,1.65
2022-12-26T17:32:47.343Z,1.77
2022-12-26T17:35:17.677Z,1.63
2022-12-26T17:37:44.853Z,1.27
2022-12-26T17:40:14.062Z,1.58
2022-12-26T17:42:45.138Z,1.50
2022-12-26T17:45:22.962Z,1.80
2022-12-26T17:47:56.970Z,1.17
2022-12-26T17:50:25.234Z,1.50
2022-12-26T17:52:51.747Z,2.38
2022-12-26T17:55:24.836Z,2.00
2022-12-26T17:57:51.522Z,1.40
2022-12-26T18:00:23.361Z,1.42
2022-12-26T18:02:50.138Z,1.80
2022-12-26T18:05:18.505Z,1.33
2022-12-26T18:07:46.337Z,2.55
2022-12-26T18:10:18.526Z,2.05
2022-12-26T18:12:45.121Z,2.15
2022-12-26T18:15:12.921Z,2.28
2022-12-26T18:17:40.436Z,1.33
2022-12-26T18:20:08.413Z,1.60
2022-12-26T18:25:01.004Z,1.60
2022-12-26T18:27:32.130Z,1.50
2022-12-26T18:29:58.795Z,1.40
2022-12-26T18:32:30.830Z,1.45
2022-12-26T18:34:57.666Z,1.55
2022-12-26T18:37:26.248Z,1.80
2022-12-26T18:39:52.720Z,1.80
2022-12-26T18:42:19.324Z,1.40
2022-12-26T18:44:45.811Z,1.75
2022-12-26T18:47:13.730Z,1.45
2022-12-26T18:52:07.779Z,1.73
2022-12-26T18:54:36.114Z,1.45
2022-12-26T18:57:07.468Z,1.77
2022-12-26T18:59:34.092Z,1.60
2022-12-26T19:02:00.749Z,1.88
2022-12-26T19:04:27.225Z,1.60
2022-12-26T19:06:53.612Z,1.20
2022-12-26T19:09:20.142Z,1.80
2022-12-26T19:11:46.663Z,1.25
2022-12-26T19:14:21.393Z,1.48
2022-12-26T19:16:47.855Z,1.40
2022-12-26T19:19:14.303Z,1.80
2022-12-26T19:21:40.662Z,1.70
2022-12-26T19:24:07.273Z,1.33
2022-12-26T19:26:33.661Z,1.40
2022-12-26T19:28:59.985Z,1.02
2022-12-26T19:31:26.544Z,1.23
2022-12-26T19:33:52.917Z,2.17
2022-12-26T19:36:19.312Z,1.63
2022-12-26T19:38:45.727Z,1.75
2022-12-26T19:41:13.832Z,1.70
2022-12-26T19:43:40.468Z,1.50
2022-12-26T19:46:09.224Z,1.27
2022-12-26T19:48:36.613Z,1.40
2022-12-26T19:51:05.537Z,1.60
2022-12-26T19:53:32.040Z,1.50
2022-12-26T19:55:58.430Z,1.70
2022-12-26T19:58:25.034Z,1.45
2022-12-26T20:00:51.464Z,1.77
2022-12-26T20:03:17.950Z,1.88
2022-12-26T20:05:44.561Z,1.30
2022-12-26T20:08:11.312Z,2.30
2022-12-26T20:10:37.657Z,2.03
2022-12-26T20:13:04.058Z,1.48
2022-12-26T20:15:32.538Z,1.70
2022-12-26T20:17:58.995Z,1.88
2022-12-26T20:20:25.381Z,1.38
2022-12-26T20:22:53.365Z,0.75
2022-12-26T20:25:19.836Z,1.10
2022-12-26T20:27:46.230Z,1.40
2022-12-26T20:30:12.802Z,1.30
2022-12-26T20:32:43.935Z,0.93
2022-12-26T20:35:10.365Z,1.30
2022-12-26T20:37:36.744Z,1.45
2022-12-26T20:40:03.274Z,1.10
2022-12-26T20:42:29.746Z,1.27
2022-12-26T20:44:56.116Z,1.20
2022-12-26T20:47:22.463Z,0.90
2022-12-26T20:49:48.917Z,1.15
2022-12-26T20:52:18.366Z,1.23
2022-12-26T20:54:44.733Z,0.85
2022-12-26T20:57:11.070Z,0.95
2022-12-26T20:59:37.408Z,0.70
2022-12-26T21:02:04.023Z,1.05
2022-12-26T21:04:30.837Z,1.83
2022-12-26T21:06:57.450Z,1.20
2022-12-26T21:09:24.008Z,1.00
2022-12-26T21:11:50.472Z,1.02
2022-12-26T21:14:20.614Z,1.20
2022-12-26T21:16:55.470Z,0.95
2022-12-26T21:19:23.143Z,1.13
2022-12-26T21:21:51.900Z,1.30
2022-12-26T21:24:21.396Z,1.02
2022-12-26T21:26:48.389Z,1.10
2022-12-26T21:29:20.338Z,1.15
2022-12-26T21:31:47.253Z,1.20
2022-12-26T21:34:15.628Z,1.15
2022-12-26T21:37:02.165Z,0.90
2022-12-26T21:39:28.705Z,1.25
2022-12-26T21:41:55.106Z,1.13
2022-12-26T21:44:21.515Z,1.30
2022-12-26T21:46:47.871Z,0.93
2022-12-26T21:49:14.262Z,0.80
2022-12-26T21:51:40.605Z,1.02
2022-12-26T21:54:25.794Z,0.95
2022-12-26T21:56:52.176Z,0.77
2022-12-26T21:59:36.903Z,1.15
2022-12-26T22:02:03.452Z,1.30
2022-12-26T22:04:30.006Z,1.20
2022-12-26T22:06:56.537Z,0.50
2022-12-26T22:09:22.929Z,1.05
2022-12-26T22:12:07.884Z,1.33
2022-12-26T22:14:34.233Z,1.13
2022-12-26T22:17:00.587Z,0.85
2022-12-26T22:19:27.018Z,1.08
2022-12-26T22:21:54.705Z,1.30
2022-12-26T22:24:27.277Z,1.63
2022-12-26T22:26:53.658Z,1.23
2022-12-26T22:29:20.029Z,0.85
2022-12-26T22:31:46.467Z,1.52
2022-12-26T22:34:14.425Z,1.40
2022-12-26T22:36:41.416Z,1.15
2022-12-26T22:39:08.034Z,1.10
2022-12-26T22:41:34.528Z,0.90
2022-12-26T22:44:00.923Z,1.13
2022-12-26T22:46:27.424Z,0.90
2022-12-26T22:48:53.949Z,1.02
2022-12-26T22:51:22.918Z,0.90
2022-12-26T22:53:49.915Z,1.15
2022-12-26T22:56:16.304Z,1.23
2022-12-26T22:58:43.023Z,1.02
2022-12-26T23:01:14.254Z,0.82
2022-12-26T23:03:40.987Z,1.38
2022-12-26T23:06:18.959Z,1.17
2022-12-26T23:08:45.484Z,1.20
2022-12-26T23:11:12.118Z,0.93
2022-12-26T23:13:38.683Z,1.50
2022-12-26T23:16:11.407Z,1.33
2022-12-26T23:19:06.114Z,0.90
2022-12-26T23:21:41.729Z,1.27
2022-12-26T23:24:16.107Z,1.20
2022-12-26T23:26:45.192Z,1.13
2022-12-26T23:29:32.539Z,1.20
2022-12-26T23:34:25.773Z,0.95
2022-12-26T23:36:52.119Z,1.02
2022-12-26T23:39:18.509Z,1.20
2022-12-26T23:41:45.040Z,1.30
2022-12-26T23:44:11.430Z,1.35
2022-12-26T23:46:39.543Z,1.40
2022-12-26T23:51:32.176Z,1.77
2022-12-26T23:53:58.572Z,1.58
2022-12-26T23:56:27.565Z,1.55
2022-12-26T23:58:54.864Z,1.85
